Terminal Aerodrome Forecast
Issued by NWS Central Illinois

Home | Current Version | Previous Version | Text Only | Print | Product List | Glossary On
Versions: 1 2 3 4 5 6 7 8 9 10 11 12 13 14 15 16 17 18 19 20 21 22 23 24 25
328
FTUS43 KILX 260310 AAA
TAFPIA
TAF AMD
KPIA 260310Z 2603/2624 12006KT 6SM BR VCSH SCT008 OVC020
      TEMPO 2603/2606 4SM -RA BR OVC008
     FM260600 13006KT 4SM BR OVC010
     FM261000 15006KT 2SM -DZ BR OVC007
     FM261700 21007KT P6SM VCSH OVC025=

USA.gov is the U.S. government's official web portal to all federal, state and local government web resources and services.